This is the latest recevied weather packets stored in our database for station/object N9OJR. If no packets are shown the sender has not sent any weather packets the latest 1 day(s).
| Time | Temp. | Humidity | Pressure | Rain* | Wind** | Luminosity | Snow |
|---|---|---|---|---|---|---|---|
| 1777996239 | 21.11° C | 67% | 1004 hPa | 0 mm | 0.45 m/s, 93° | 643 W/m² | - |
| 1777995935 | 20.56° C | 66% | 1003.6 hPa | 0 mm | 1.34 m/s, 148° | 713 W/m² | - |
| 1777995631 | 20.56° C | 66% | 1003.9 hPa | 0 mm | 0.45 m/s, 132° | 706 W/m² | - |
| 1777995330 | 20.56° C | 67% | 1003.7 hPa | 0 mm | 1.34 m/s, 325° | 774 W/m² | - |
| 1777995026 | 20.56° C | 68% | 1003.6 hPa | 0 mm | 0.45 m/s, 284° | 739 W/m² | - |
| 1777994723 | 20.56° C | 69% | 1003.5 hPa | 0 mm | 0 m/s | 412 W/m² | - |
| 1777994419 | 20.56° C | 69% | 1003.5 hPa | 0 mm | 0.89 m/s, 151° | 759 W/m² | - |
| 1777994114 | 20° C | 68% | 1003.5 hPa | 0 mm | 0.89 m/s, 359° | 760 W/m² | - |
| 1777993812 | 20° C | 68% | 1004 hPa | 0 mm | 0.89 m/s, 64° | 711 W/m² | - |
| 1777993508 | 20.56° C | 67% | 1003.6 hPa | 0 mm | 2.24 m/s, 16° | 707 W/m² | - |
| 1777993204 | 20.56° C | 69% | 1003.6 hPa | 0 mm | 0.45 m/s, 258° | 753 W/m² | - |
| 1777992901 | 20.56° C | 68% | 1003.6 hPa | 0 mm | 1.34 m/s, 289° | 744 W/m² | - |
| 1777992599 | 20° C | 70% | 1003.4 hPa | 0 mm | 0 m/s | 771 W/m² | - |
| 1777992296 | 19.44° C | 70% | 1003.8 hPa | 0 mm | 1.79 m/s, 359° | 789 W/m² | - |
| 1777991993 | 19.44° C | 71% | 1003.6 hPa | 0 mm | 0.45 m/s, 33° | 724 W/m² | - |
| 1777991691 | 18.89° C | 72% | 1003.7 hPa | 0 mm | 0.45 m/s, 86° | 686 W/m² | - |
| 1777991388 | 19.44° C | 72% | 1003.8 hPa | 0 mm | 0.89 m/s, 238° | 684 W/m² | - |
| 1777991085 | 18.89° C | 72% | 1003.7 hPa | 0 mm | 0.45 m/s, 120° | 629 W/m² | - |
| 1777990783 | 19.44° C | 73% | 1003.8 hPa | 0 mm | 0.89 m/s, 213° | 695 W/m² | - |
| 1777990480 | 18.89° C | 72% | 1003.6 hPa | 0 mm | 0.89 m/s, 195° | 650 W/m² | - |
| 1777990177 | 18.89° C | 72% | 1003.7 hPa | 0 mm | 1.79 m/s, 59° | 631 W/m² | - |
| 1777989873 | 18.89° C | 72% | 1003.6 hPa | 0 mm | 0.45 m/s, 168° | 592 W/m² | - |
| 1777989571 | 18.33° C | 74% | 1003.7 hPa | 0 mm | 0.45 m/s, 271° | 573 W/m² | - |
| 1777989266 | 18.33° C | 74% | 1003.6 hPa | 0 mm | 0.89 m/s, 297° | 541 W/m² | - |
| 1777988963 | 18.33° C | 73% | 1003.6 hPa | 0 mm | 1.34 m/s, 163° | 574 W/m² | - |
* Rain latest hour (hover to see other rain measurements)
** Current wind speed in m/s (hover to see current wind gust speed)